Time;durP1;ratioP1;P1;durP2;ratioP2;P2;SDS_P1;SDS_P2;PMS_P1;PMS_P2;Temp;Humidity;BMP_temperature;BMP_pressure;BME280_temperature;BME280_humidity;BME280_pressure;Samples;Min_cycle;Max_cycle;Signal;HPM_P1;HPM_P2
2024/01/29 00:01:55;;;;;;;9.40;5.80;;;;;;;;;;5050668;28;20110;-70
2024/01/29 00:04:21;;;;;;;10.45;6.25;;;;;;;;;;5044205;28;20128;-70
2024/01/29 00:06:49;;;;;;;8.88;6.22;;;;;;;;;;5050231;28;20045;-70
2024/01/29 00:09:17;;;;;;;11.95;6.25;;;;;;;;;;5043033;28;20493;-70
2024/01/29 00:11:44;;;;;;;9.27;6.22;;;;;;;;;;5050836;28;20053;-70
2024/01/29 00:14:10;;;;;;;10.05;6.00;;;;;;;;;;5050989;28;20055;-70
2024/01/29 00:16:36;;;;;;;10.80;6.07;;;;;;;;;;5049955;28;20049;-70
2024/01/29 00:19:04;;;;;;;9.50;6.18;;;;;;;;;;5050854;28;20063;-69
2024/01/29 00:21:31;;;;;;;10.32;6.20;;;;;;;;;;5050339;28;20059;-71
2024/01/29 00:24:00;;;;;;;8.57;6.40;;;;;;;;;;5050792;28;20144;-69
2024/01/29 00:26:27;;;;;;;12.57;6.25;;;;;;;;;;5050861;28;20448;-70
2024/01/29 00:28:53;;;;;;;10.82;6.40;;;;;;;;;;5049896;28;20475;-70
2024/01/29 00:31:21;;;;;;;9.43;6.05;;;;;;;;;;5050095;28;20626;-70
2024/01/29 00:33:48;;;;;;;10.82;6.22;;;;;;;;;;5050421;28;20501;-70
2024/01/29 00:36:14;;;;;;;11.77;6.20;;;;;;;;;;5050841;28;20417;-70
2024/01/29 00:38:41;;;;;;;10.10;6.13;;;;;;;;;;5050012;28;20417;-70
2024/01/29 00:41:08;;;;;;;9.65;6.43;;;;;;;;;;5050330;28;20068;-70
2024/01/29 00:43:35;;;;;;;8.88;5.60;;;;;;;;;;5050632;28;20045;-71
2024/01/29 00:46:01;;;;;;;11.13;6.13;;;;;;;;;;5050866;28;20413;-70
2024/01/29 00:48:27;;;;;;;9.70;6.10;;;;;;;;;;5049482;28;20045;-69
2024/01/29 00:50:55;;;;;;;11.63;6.32;;;;;;;;;;5049970;28;20048;-69
2024/01/29 00:53:21;;;;;;;10.60;6.72;;;;;;;;;;5050704;28;20053;-70
2024/01/29 00:55:48;;;;;;;11.10;6.10;;;;;;;;;;5050601;28;20055;-69
2024/01/29 00:58:17;;;;;;;9.00;6.15;;;;;;;;;;5047553;28;20048;-70
2024/01/29 01:00:43;;;;;;;8.82;6.10;;;;;;;;;;5049616;28;20483;-69
2024/01/29 01:03:10;;;;;;;9.52;6.05;;;;;;;;;;5049953;28;20401;-70
2024/01/29 01:05:36;;;;;;;9.90;6.05;;;;;;;;;;5050644;28;20485;-70
2024/01/29 01:08:03;;;;;;;12.15;6.85;;;;;;;;;;5049769;28;20497;-70
2024/01/29 01:10:29;;;;;;;9.60;5.88;;;;;;;;;;5049376;28;20123;-70
2024/01/29 01:12:56;;;;;;;12.07;5.90;;;;;;;;;;5050306;28;20072;-69
2024/01/29 01:15:24;;;;;;;8.15;5.47;;;;;;;;;;5051103;28;20516;-69
2024/01/29 01:17:50;;;;;;;9.18;5.38;;;;;;;;;;5053955;28;20060;-67
2024/01/29 01:20:16;;;;;;;12.15;6.38;;;;;;;;;;5052735;28;20060;-70
2024/01/29 01:22:43;;;;;;;9.68;6.13;;;;;;;;;;5054060;28;20512;-70
2024/01/29 01:25:09;;;;;;;8.73;5.55;;;;;;;;;;5053889;28;20048;-70
2024/01/29 01:27:36;;;;;;;9.60;5.65;;;;;;;;;;5053504;28;20049;-70
2024/01/29 01:30:02;;;;;;;9.15;6.07;;;;;;;;;;5052751;28;20041;-70
2024/01/29 01:32:30;;;;;;;9.90;5.60;;;;;;;;;;5051974;28;20149;-70
2024/01/29 01:34:56;;;;;;;10.23;5.38;;;;;;;;;;5051067;28;20051;-70
2024/01/29 01:37:22;;;;;;;10.52;6.05;;;;;;;;;;5053444;28;20056;-70
2024/01/29 01:39:52;;;;;;;8.75;5.18;;;;;;;;;;5052930;28;20420;-69
2024/01/29 01:42:18;;;;;;;8.88;5.68;;;;;;;;;;5050472;28;20135;-70
2024/01/29 01:44:46;;;;;;;9.60;5.70;;;;;;;;;;5048939;28;20051;-70
2024/01/29 01:47:12;;;;;;;8.88;5.70;;;;;;;;;;5053705;28;20049;-68
2024/01/29 01:49:40;;;;;;;10.45;5.63;;;;;;;;;;5051736;28;20049;-70
2024/01/29 01:52:06;;;;;;;13.30;5.75;;;;;;;;;;5052887;28;20045;-70
2024/01/29 01:54:33;;;;;;;9.60;5.60;;;;;;;;;;5053116;28;20049;-69
2024/01/29 01:57:00;;;;;;;11.95;5.57;;;;;;;;;;5048561;28;20048;-70
2024/01/29 01:59:27;;;;;;;10.95;5.63;;;;;;;;;;5048184;28;20045;-70
2024/01/29 02:01:53;;;;;;;8.45;5.10;;;;;;;;;;5052737;28;20055;-69
2024/01/29 02:04:20;;;;;;;7.95;5.20;;;;;;;;;;5052953;28;20481;-70
2024/01/29 02:06:48;;;;;;;9.90;6.22;;;;;;;;;;5040889;28;20041;-69
2024/01/29 02:09:14;;;;;;;10.18;5.85;;;;;;;;;;5052308;28;20136;-70
2024/01/29 02:11:41;;;;;;;10.93;6.03;;;;;;;;;;5049338;28;20464;-70
2024/01/29 02:14:07;;;;;;;9.18;5.72;;;;;;;;;;5052005;28;20453;-70
2024/01/29 02:16:33;;;;;;;8.43;6.13;;;;;;;;;;5052828;28;20136;-69
2024/01/29 02:19:00;;;;;;;9.85;5.82;;;;;;;;;;5052294;28;20048;-70
2024/01/29 02:21:26;;;;;;;9.70;5.40;;;;;;;;;;5052222;28;20083;-70
2024/01/29 02:23:54;;;;;;;11.63;6.78;;;;;;;;;;5052796;28;20052;-70
2024/01/29 02:26:20;;;;;;;7.35;5.15;;;;;;;;;;5048318;28;20408;-70
2024/01/29 02:28:47;;;;;;;8.73;5.68;;;;;;;;;;5051909;28;20497;-70
2024/01/29 02:31:14;;;;;;;8.68;5.75;;;;;;;;;;5044517;28;20052;-70
2024/01/29 02:33:40;;;;;;;10.40;5.65;;;;;;;;;;5049678;28;20464;-70
2024/01/29 02:36:07;;;;;;;8.95;5.40;;;;;;;;;;5052765;28;20409;-70
2024/01/29 02:38:34;;;;;;;12.27;6.38;;;;;;;;;;5051741;28;20511;-71
2024/01/29 02:41:01;;;;;;;8.13;5.35;;;;;;;;;;5051746;28;20110;-69
2024/01/29 02:43:28;;;;;;;8.38;5.78;;;;;;;;;;5052660;28;20041;-70
2024/01/29 02:45:54;;;;;;;9.30;6.10;;;;;;;;;;5051915;28;20064;-69
2024/01/29 02:48:20;;;;;;;10.10;6.15;;;;;;;;;;5051617;28;20045;-70
2024/01/29 02:50:47;;;;;;;10.45;5.72;;;;;;;;;;5051794;28;20052;-70
2024/01/29 02:53:13;;;;;;;9.70;6.07;;;;;;;;;;5051920;28;20140;-70
2024/01/29 02:55:39;;;;;;;9.93;6.13;;;;;;;;;;5052651;28;20049;-70
2024/01/29 02:58:07;;;;;;;11.18;6.53;;;;;;;;;;5049376;28;20045;-70
2024/01/29 03:00:33;;;;;;;11.35;6.50;;;;;;;;;;5050809;28;20079;-70
2024/01/29 03:03:00;;;;;;;9.55;6.10;;;;;;;;;;5045452;28;20052;-70
2024/01/29 03:05:26;;;;;;;11.50;6.00;;;;;;;;;;5050343;28;20053;-70
2024/01/29 03:07:53;;;;;;;10.05;5.68;;;;;;;;;;5051489;28;20053;-69
2024/01/29 03:10:19;;;;;;;10.10;6.20;;;;;;;;;;5050528;28;20052;-70
2024/01/29 03:12:45;;;;;;;11.55;6.18;;;;;;;;;;5048364;28;20077;-70
2024/01/29 03:15:13;;;;;;;8.25;5.72;;;;;;;;;;5051321;28;20051;-70
2024/01/29 03:17:40;;;;;;;8.90;6.32;;;;;;;;;;5048052;28;20080;-70
2024/01/29 03:20:07;;;;;;;9.18;5.75;;;;;;;;;;5049338;28;20048;-71
2024/01/29 03:22:33;;;;;;;8.90;5.60;;;;;;;;;;5051018;28;20061;-69
2024/01/29 03:24:59;;;;;;;9.02;5.57;;;;;;;;;;5051939;28;20045;-69
2024/01/29 03:27:26;;;;;;;11.90;5.97;;;;;;;;;;5051516;28;20049;-70
2024/01/29 03:29:52;;;;;;;9.20;5.70;;;;;;;;;;5050826;28;20044;-70
2024/01/29 03:32:20;;;;;;;8.70;6.00;;;;;;;;;;5048256;28;20049;-70
2024/01/29 03:34:46;;;;;;;11.32;6.78;;;;;;;;;;5047690;28;20394;-70
2024/01/29 03:37:13;;;;;;;10.77;5.82;;;;;;;;;;5050997;28;20056;-67
2024/01/29 03:39:39;;;;;;;11.02;6.68;;;;;;;;;;5050566;28;20060;-70
2024/01/29 03:42:05;;;;;;;8.75;5.72;;;;;;;;;;5051042;28;20574;-70
2024/01/29 03:44:32;;;;;;;11.05;6.40;;;;;;;;;;5049753;28;20041;-69
2024/01/29 03:46:58;;;;;;;10.98;6.05;;;;;;;;;;5051231;28;20045;-70
2024/01/29 03:49:26;;;;;;;9.50;5.88;;;;;;;;;;5049141;28;20045;-70
2024/01/29 03:51:52;;;;;;;9.45;6.32;;;;;;;;;;5047099;28;20041;-70
2024/01/29 03:54:19;;;;;;;8.25;5.70;;;;;;;;;;5051122;28;20041;-70
2024/01/29 03:56:45;;;;;;;8.80;5.18;;;;;;;;;;5047114;28;20041;-70
2024/01/29 03:59:11;;;;;;;7.75;5.53;;;;;;;;;;5050472;28;20052;-70
2024/01/29 04:01:38;;;;;;;9.48;5.85;;;;;;;;;;5049833;28;20048;-69
2024/01/29 04:04:09;;;;;;;11.82;6.32;;;;;;;;;;5050600;28;20049;-70
2024/01/29 04:06:37;;;;;;;12.23;6.82;;;;;;;;;;5051560;28;20098;-71
2024/01/29 04:09:03;;;;;;;10.40;5.93;;;;;;;;;;5050459;28;20537;-70
2024/01/29 04:11:30;;;;;;;10.27;6.13;;;;;;;;;;5050218;28;20051;-70
2024/01/29 04:13:56;;;;;;;9.30;6.32;;;;;;;;;;5050866;28;20045;-70
2024/01/29 04:16:22;;;;;;;9.68;6.28;;;;;;;;;;5050639;28;20041;-70
2024/01/29 04:18:49;;;;;;;8.95;5.43;;;;;;;;;;5050048;28;20041;-70
2024/01/29 04:21:15;;;;;;;12.00;6.38;;;;;;;;;;5050253;28;20416;-71
2024/01/29 04:23:43;;;;;;;12.30;6.07;;;;;;;;;;5050902;28;20053;-70
2024/01/29 04:26:10;;;;;;;11.85;6.63;;;;;;;;;;5050824;28;20049;-69
2024/01/29 04:28:36;;;;;;;12.00;6.22;;;;;;;;;;5050157;28;20044;-71
2024/01/29 04:31:03;;;;;;;9.23;6.13;;;;;;;;;;5049761;28;20061;-71
2024/01/29 04:33:29;;;;;;;11.05;6.38;;;;;;;;;;5050506;28;20053;-71
2024/01/29 04:35:55;;;;;;;13.07;6.80;;;;;;;;;;5050508;28;20049;-71
2024/01/29 04:38:22;;;;;;;10.60;7.03;;;;;;;;;;5049605;28;20045;-71
2024/01/29 04:40:49;;;;;;;11.80;6.57;;;;;;;;;;5042205;28;20056;-71
2024/01/29 04:43:16;;;;;;;10.07;6.70;;;;;;;;;;5050529;28;20489;-71
2024/01/29 04:45:42;;;;;;;10.35;6.97;;;;;;;;;;5050591;28;20053;-70
2024/01/29 04:48:09;;;;;;;10.82;6.50;;;;;;;;;;5050408;28;20056;-70
2024/01/29 04:50:35;;;;;;;9.35;6.18;;;;;;;;;;5051011;28;20048;-70
2024/01/29 04:53:01;;;;;;;11.50;6.30;;;;;;;;;;5054458;28;20045;-70
2024/01/29 04:55:28;;;;;;;10.20;6.18;;;;;;;;;;5054519;28;20045;-70
2024/01/29 04:57:55;;;;;;;10.50;6.20;;;;;;;;;;5054286;28;20044;-71
2024/01/29 05:00:22;;;;;;;11.80;6.57;;;;;;;;;;5048437;28;20049;-70
2024/01/29 05:02:48;;;;;;;11.85;7.22;;;;;;;;;;5051320;28;20052;-70
2024/01/29 05:05:15;;;;;;;11.15;6.55;;;;;;;;;;5054744;28;20563;-70
2024/01/29 05:07:42;;;;;;;9.13;5.75;;;;;;;;;;5054298;28;20045;-69
2024/01/29 05:10:09;;;;;;;11.15;6.95;;;;;;;;;;5051790;28;20509;-69
2024/01/29 05:12:35;;;;;;;9.93;6.40;;;;;;;;;;5053625;28;20057;-69
2024/01/29 05:15:03;;;;;;;8.55;6.07;;;;;;;;;;5053406;28;20048;-69
2024/01/29 05:17:30;;;;;;;13.25;7.25;;;;;;;;;;5049832;28;20056;-70
2024/01/29 05:19:56;;;;;;;10.55;6.95;;;;;;;;;;5052426;28;20501;-70
2024/01/29 05:22:23;;;;;;;11.93;7.22;;;;;;;;;;5051007;28;20049;-69
2024/01/29 05:24:49;;;;;;;57.45;19.80;;;;;;;;;;5046436;28;20053;-69
2024/01/29 05:27:15;;;;;;;41.80;15.93;;;;;;;;;;5053404;28;20049;-69
2024/01/29 05:29:42;;;;;;;25.85;11.57;;;;;;;;;;5046515;28;20052;-69
2024/01/29 05:32:10;;;;;;;17.27;8.52;;;;;;;;;;5049065;28;20049;-69
2024/01/29 05:34:36;;;;;;;14.07;7.45;;;;;;;;;;5053300;28;20053;-69
2024/01/29 05:37:02;;;;;;;12.30;6.70;;;;;;;;;;5053411;28;20051;-69
2024/01/29 05:39:29;;;;;;;10.35;6.93;;;;;;;;;;5045052;28;20049;-69
2024/01/29 05:41:55;;;;;;;11.35;6.68;;;;;;;;;;5044657;28;20425;-69
2024/01/29 05:44:21;;;;;;;9.38;6.57;;;;;;;;;;5053557;28;20249;-70
2024/01/29 05:46:48;;;;;;;11.65;6.80;;;;;;;;;;5052414;28;20044;-69
2024/01/29 05:49:15;;;;;;;9.75;6.05;;;;;;;;;;5044020;28;20390;-69
2024/01/29 05:51:42;;;;;;;10.88;6.53;;;;;;;;;;5052566;28;20045;-69
2024/01/29 05:54:08;;;;;;;10.52;6.88;;;;;;;;;;5046827;28;20111;-69
2024/01/29 05:56:34;;;;;;;11.32;6.85;;;;;;;;;;5049229;28;20053;-69
2024/01/29 05:59:01;;;;;;;11.40;6.78;;;;;;;;;;5045021;28;20063;-69
2024/01/29 06:01:27;;;;;;;13.02;7.15;;;;;;;;;;5042644;28;20056;-70
2024/01/29 06:03:54;;;;;;;13.05;7.55;;;;;;;;;;5052808;28;20048;-69
2024/01/29 06:06:22;;;;;;;11.98;7.13;;;;;;;;;;5046976;28;20053;-69
2024/01/29 06:08:48;;;;;;;11.98;7.22;;;;;;;;;;5052333;28;20052;-70
2024/01/29 06:11:15;;;;;;;9.57;6.35;;;;;;;;;;5050838;28;20045;-69
2024/01/29 06:13:41;;;;;;;11.15;7.03;;;;;;;;;;5045158;28;20045;-69
2024/01/29 06:16:07;;;;;;;12.20;7.35;;;;;;;;;;5045402;28;20045;-69
2024/01/29 06:18:34;;;;;;;14.45;7.15;;;;;;;;;;5052043;28;20153;-69
2024/01/29 06:21:00;;;;;;;10.23;7.07;;;;;;;;;;5051905;28;20487;-69
2024/01/29 06:23:28;;;;;;;10.93;6.50;;;;;;;;;;5043095;28;20053;-70
2024/01/29 06:25:55;;;;;;;12.60;6.97;;;;;;;;;;5046208;28;20045;-69
2024/01/29 06:28:21;;;;;;;14.30;6.82;;;;;;;;;;5048860;28;20045;-69
2024/01/29 06:30:48;;;;;;;14.13;7.03;;;;;;;;;;5047832;28;20050;-70
2024/01/29 06:33:14;;;;;;;10.60;6.82;;;;;;;;;;5040674;28;20049;-69
2024/01/29 06:35:40;;;;;;;12.00;7.35;;;;;;;;;;5046550;28;20060;-69
2024/01/29 06:38:07;;;;;;;11.77;7.28;;;;;;;;;;5047261;28;20044;-70
2024/01/29 06:40:35;;;;;;;11.50;7.03;;;;;;;;;;5048463;28;20088;-70
2024/01/29 06:43:01;;;;;;;11.18;6.60;;;;;;;;;;5047176;28;20051;-69
2024/01/29 06:45:28;;;;;;;10.27;6.43;;;;;;;;;;5052011;28;20095;-69
2024/01/29 06:47:54;;;;;;;11.77;7.10;;;;;;;;;;5047993;28;20045;-69
2024/01/29 06:50:21;;;;;;;12.60;7.07;;;;;;;;;;5049817;28;20136;-69
2024/01/29 06:52:48;;;;;;;10.90;7.07;;;;;;;;;;5051787;28;20052;-70
2024/01/29 06:55:14;;;;;;;12.63;6.88;;;;;;;;;;5051156;28;20044;-69
2024/01/29 06:57:42;;;;;;;12.63;7.22;;;;;;;;;;5051081;28;20049;-69
2024/01/29 07:00:09;;;;;;;15.25;8.25;;;;;;;;;;5043334;28;20041;-69
2024/01/29 07:02:35;;;;;;;12.45;7.97;;;;;;;;;;5044167;28;20619;-69
2024/01/29 07:05:02;;;;;;;12.23;7.50;;;;;;;;;;5046253;28;20044;-69
2024/01/29 07:07:28;;;;;;;11.80;6.72;;;;;;;;;;5043116;28;20045;-69
2024/01/29 07:09:55;;;;;;;10.65;6.75;;;;;;;;;;5046582;28;20049;-69
2024/01/29 07:12:22;;;;;;;11.10;6.97;;;;;;;;;;5040528;28;20044;-69
2024/01/29 07:14:52;;;;;;;10.43;6.78;;;;;;;;;;5050250;28;20409;-69
2024/01/29 07:17:18;;;;;;;11.23;6.63;;;;;;;;;;5047981;28;20049;-69
2024/01/29 07:19:47;;;;;;;12.95;6.45;;;;;;;;;;5048710;28;20323;-68
2024/01/29 07:22:18;;;;;;;11.40;7.47;;;;;;;;;;5041329;28;20079;-69
2024/01/29 07:24:44;;;;;;;13.20;7.38;;;;;;;;;;5040064;28;20128;-69
2024/01/29 07:27:11;;;;;;;10.43;6.55;;;;;;;;;;5039938;28;20045;-69
2024/01/29 07:29:37;;;;;;;11.68;6.50;;;;;;;;;;5047889;28;20048;-69
2024/01/29 07:32:06;;;;;;;11.68;6.85;;;;;;;;;;5039868;28;20049;-69
2024/01/29 07:34:32;;;;;;;11.10;7.22;;;;;;;;;;5044541;28;20053;-69
2024/01/29 07:36:59;;;;;;;13.35;6.43;;;;;;;;;;5042295;28;20037;-69
2024/01/29 07:39:25;;;;;;;16.45;7.95;;;;;;;;;;5044629;28;20049;-69
2024/01/29 07:41:52;;;;;;;12.63;7.68;;;;;;;;;;5045186;28;20041;-69
2024/01/29 07:44:18;;;;;;;11.38;6.40;;;;;;;;;;5043149;28;20048;-69
2024/01/29 07:46:44;;;;;;;13.27;6.85;;;;;;;;;;5041576;28;20041;-69
2024/01/29 07:49:12;;;;;;;10.90;6.88;;;;;;;;;;5045156;28;20494;-69
2024/01/29 07:51:39;;;;;;;10.20;6.45;;;;;;;;;;5045123;28;20048;-69
2024/01/29 07:54:06;;;;;;;11.93;6.43;;;;;;;;;;5044083;28;20410;-69
2024/01/29 07:56:32;;;;;;;10.38;6.65;;;;;;;;;;5046671;28;20132;-69
2024/01/29 07:58:59;;;;;;;10.88;7.25;;;;;;;;;;5049182;28;20049;-69
2024/01/29 08:01:25;;;;;;;11.00;6.85;;;;;;;;;;5034665;28;20053;-69
2024/01/29 08:03:51;;;;;;;9.73;6.78;;;;;;;;;;5037814;28;20041;-70
2024/01/29 08:06:19;;;;;;;11.15;7.00;;;;;;;;;;5039492;28;20053;-69
2024/01/29 08:08:46;;;;;;;12.23;6.72;;;;;;;;;;5037879;28;20045;-69
2024/01/29 08:11:12;;;;;;;11.55;6.50;;;;;;;;;;5044169;28;20053;-69
2024/01/29 08:13:39;;;;;;;10.52;6.75;;;;;;;;;;5043480;28;20068;-69
2024/01/29 08:16:05;;;;;;;13.43;7.07;;;;;;;;;;5045889;28;20370;-69
2024/01/29 08:18:32;;;;;;;13.50;6.82;;;;;;;;;;5038417;28;20061;-69
2024/01/29 08:20:58;;;;;;;12.23;6.97;;;;;;;;;;5048259;28;20417;-69
2024/01/29 08:23:26;;;;;;;13.00;7.88;;;;;;;;;;5046215;28;20524;-69
2024/01/29 08:25:53;;;;;;;10.95;6.50;;;;;;;;;;5032323;28;20155;-69
2024/01/29 08:28:19;;;;;;;10.70;6.90;;;;;;;;;;5044861;28;20435;-69
2024/01/29 08:30:45;;;;;;;13.75;7.22;;;;;;;;;;5039879;28;20487;-69
2024/01/29 08:33:12;;;;;;;12.10;7.15;;;;;;;;;;5033154;28;20052;-70
2024/01/29 08:35:38;;;;;;;12.40;6.93;;;;;;;;;;5038676;28;20045;-69
2024/01/29 08:38:05;;;;;;;9.23;6.30;;;;;;;;;;5037876;28;20072;-70
2024/01/29 08:40:32;;;;;;;11.35;7.28;;;;;;;;;;5045742;28;20051;-69
2024/01/29 08:42:59;;;;;;;9.38;6.78;;;;;;;;;;5042281;28;20049;-69
2024/01/29 08:45:25;;;;;;;11.93;6.30;;;;;;;;;;5045780;28;20524;-68
2024/01/29 08:47:51;;;;;;;13.30;7.38;;;;;;;;;;5046021;28;20681;-69
2024/01/29 08:50:18;;;;;;;10.15;7.05;;;;;;;;;;5038483;28;20045;-69
2024/01/29 08:52:44;;;;;;;12.52;7.03;;;;;;;;;;5045837;28;20045;-69
2024/01/29 08:55:11;;;;;;;18.25;9.68;;;;;;;;;;5048018;28;20053;-69
2024/01/29 08:57:38;;;;;;;15.75;9.05;;;;;;;;;;5043103;28;20052;-69
2024/01/29 09:00:05;;;;;;;17.52;9.43;;;;;;;;;;5036021;28;20049;-69
2024/01/29 09:02:33;;;;;;;18.80;9.50;;;;;;;;;;5046182;28;20551;-68
2024/01/29 09:05:00;;;;;;;19.20;10.20;;;;;;;;;;5047208;28;20041;-68
2024/01/29 09:07:26;;;;;;;20.23;10.30;;;;;;;;;;5046425;28;20045;-68
2024/01/29 09:09:52;;;;;;;19.42;10.43;;;;;;;;;;5043747;28;20037;-69
2024/01/29 09:12:19;;;;;;;19.73;10.68;;;;;;;;;;5041408;28;20041;-68
2024/01/29 09:14:46;;;;;;;16.80;9.88;;;;;;;;;;5032807;28;20460;-69
2024/01/29 09:17:13;;;;;;;21.15;11.35;;;;;;;;;;5037484;28;20413;-69
2024/01/29 09:19:39;;;;;;;19.90;10.68;;;;;;;;;;5035299;28;20088;-69
2024/01/29 09:22:05;;;;;;;19.25;10.32;;;;;;;;;;5036361;28;20049;-70
2024/01/29 09:24:32;;;;;;;23.02;12.07;;;;;;;;;;5045305;28;20076;-68
2024/01/29 09:26:58;;;;;;;21.52;11.68;;;;;;;;;;5047100;28;20060;-68
2024/01/29 09:29:24;;;;;;;19.27;10.88;;;;;;;;;;5042608;28;20068;-69
2024/01/29 09:31:52;;;;;;;20.10;11.80;;;;;;;;;;5041650;28;20041;-69
2024/01/29 09:34:20;;;;;;;18.90;12.07;;;;;;;;;;5041271;28;20412;-69
2024/01/29 09:36:46;;;;;;;20.65;11.07;;;;;;;;;;5033164;28;20413;-69
2024/01/29 09:39:13;;;;;;;16.38;10.07;;;;;;;;;;5045489;28;20529;-68
2024/01/29 09:41:39;;;;;;;14.63;8.68;;;;;;;;;;5043724;28;20045;-69
2024/01/29 09:44:07;;;;;;;15.55;9.57;;;;;;;;;;5034707;28;20049;-69
2024/01/29 09:46:36;;;;;;;15.40;8.65;;;;;;;;;;5035506;28;20081;-69
2024/01/29 09:49:04;;;;;;;15.68;9.05;;;;;;;;;;5038050;28;20478;-69
2024/01/29 09:51:32;;;;;;;13.63;8.40;;;;;;;;;;5037023;28;20045;-69
2024/01/29 09:53:59;;;;;;;14.40;8.82;;;;;;;;;;5045412;28;20044;-69
2024/01/29 09:56:25;;;;;;;12.68;8.15;;;;;;;;;;5045505;28;20048;-69
2024/01/29 09:58:51;;;;;;;13.70;7.97;;;;;;;;;;5038163;28;20226;-69
2024/01/29 10:01:19;;;;;;;13.45;7.68;;;;;;;;;;5034816;28;20049;-70
2024/01/29 10:03:45;;;;;;;11.43;7.38;;;;;;;;;;5041823;28;20060;-69
2024/01/29 10:06:13;;;;;;;12.40;7.43;;;;;;;;;;5048779;28;20041;-69
2024/01/29 10:08:39;;;;;;;12.05;7.85;;;;;;;;;;5044574;28;20052;-69
2024/01/29 10:11:07;;;;;;;12.00;7.60;;;;;;;;;;5044779;28;20490;-69
2024/01/29 10:13:33;;;;;;;14.40;8.25;;;;;;;;;;5044639;28;20489;-69
2024/01/29 10:16:00;;;;;;;12.35;8.02;;;;;;;;;;5043535;28;20482;-69
2024/01/29 10:18:26;;;;;;;12.95;7.25;;;;;;;;;;5037480;28;20128;-69
2024/01/29 10:20:59;;;;;;;14.38;8.63;;;;;;;;;;5042810;28;20494;-69
2024/01/29 10:23:27;;;;;;;11.52;7.60;;;;;;;;;;5045799;28;20493;-68
2024/01/29 10:25:57;;;;;;;12.82;7.75;;;;;;;;;;5050976;28;20045;-70
2024/01/29 10:28:26;;;;;;;12.38;7.25;;;;;;;;;;5040397;28;20131;-68
2024/01/29 10:30:53;;;;;;;12.85;8.60;;;;;;;;;;5046292;28;20049;-69
2024/01/29 10:33:19;;;;;;;14.77;8.30;;;;;;;;;;5040839;28;20045;-69
2024/01/29 10:35:45;;;;;;;16.60;9.43;;;;;;;;;;5042033;28;20049;-70
2024/01/29 10:38:15;;;;;;;14.57;9.50;;;;;;;;;;5049054;28;20052;-68
2024/01/29 10:40:44;;;;;;;14.93;10.00;;;;;;;;;;5042481;28;20506;-69
2024/01/29 10:43:15;;;;;;;17.05;9.90;;;;;;;;;;5038456;28;20060;-70
2024/01/29 10:45:42;;;;;;;14.30;9.25;;;;;;;;;;5040646;28;20055;-68
2024/01/29 10:48:11;;;;;;;13.57;8.57;;;;;;;;;;5042840;28;20052;-72
2024/01/29 10:50:37;;;;;;;13.73;8.93;;;;;;;;;;5046563;28;20091;-68
2024/01/29 10:53:05;;;;;;;12.52;8.40;;;;;;;;;;5042252;28;20473;-70
2024/01/29 10:55:32;;;;;;;16.30;9.02;;;;;;;;;;5037007;28;20054;-69
2024/01/29 10:58:01;;;;;;;12.93;8.60;;;;;;;;;;5038636;28;20064;-69
2024/01/29 11:00:27;;;;;;;13.68;8.68;;;;;;;;;;5037755;28;20533;-70
2024/01/29 11:02:54;;;;;;;12.63;8.88;;;;;;;;;;5045948;28;20052;-69
2024/01/29 11:05:21;;;;;;;11.63;7.78;;;;;;;;;;5040940;28;20048;-71
2024/01/29 11:07:48;;;;;;;15.07;9.80;;;;;;;;;;5044882;28;20037;-69
2024/01/29 11:10:16;;;;;;;13.40;8.32;;;;;;;;;;5044004;28;20591;-72
2024/01/29 11:12:42;;;;;;;12.20;8.45;;;;;;;;;;5045568;28;20041;-70
2024/01/29 11:15:10;;;;;;;15.70;9.18;;;;;;;;;;5042150;28;20050;-68
2024/01/29 11:17:37;;;;;;;12.70;8.00;;;;;;;;;;5037575;28;20051;-68
2024/01/29 11:20:04;;;;;;;12.13;8.43;;;;;;;;;;5045473;28;20049;-68
2024/01/29 11:22:37;;;;;;;10.15;7.50;;;;;;;;;;5041391;28;20047;-69
2024/01/29 11:25:03;;;;;;;;;;;;;;;;;;5047736;28;20083;-69
2024/01/29 11:27:30;;;;;;;13.18;7.57;;;;;;;;;;5048677;28;19921;-70
2024/01/29 11:29:57;;;;;;;11.35;8.40;;;;;;;;;;5035168;28;20057;-69
2024/01/29 11:32:24;;;;;;;15.55;8.65;;;;;;;;;;5044225;28;20041;-68
2024/01/29 11:34:56;;;;;;;11.40;7.90;;;;;;;;;;5049582;28;20071;-68
2024/01/29 11:37:25;;;;;;;13.45;7.90;;;;;;;;;;5046505;28;20045;-70
2024/01/29 11:39:51;;;;;;;9.68;7.20;;;;;;;;;;5046724;28;20067;-69
2024/01/29 11:42:19;;;;;;;11.60;7.68;;;;;;;;;;5046018;28;20321;-69
2024/01/29 11:44:45;;;;;;;13.88;8.27;;;;;;;;;;5041982;28;20041;-68
2024/01/29 11:47:12;;;;;;;11.20;7.55;;;;;;;;;;5047712;28;20049;-70
2024/01/29 11:49:39;;;;;;;13.45;7.97;;;;;;;;;;5042458;28;20047;-68
2024/01/29 11:52:07;;;;;;;11.43;7.82;;;;;;;;;;5043935;28;20056;-69
2024/01/29 11:54:34;;;;;;;11.52;7.63;;;;;;;;;;5047385;28;20405;-69
2024/01/29 11:57:00;;;;;;;11.35;7.00;;;;;;;;;;5049626;28;20056;-69
2024/01/29 11:59:27;;;;;;;10.27;6.78;;;;;;;;;;5043532;28;20428;-69
2024/01/29 12:01:53;;;;;;;9.98;7.03;;;;;;;;;;5048559;28;20041;-69
2024/01/29 12:04:19;;;;;;;10.52;7.28;;;;;;;;;;5041464;28;20059;-68
2024/01/29 12:06:52;;;;;;;10.43;7.28;;;;;;;;;;5043691;28;20414;-68
2024/01/29 12:09:18;;;;;;;11.30;7.63;;;;;;;;;;5041974;28;20416;-69
2024/01/29 12:11:45;;;;;;;15.52;7.82;;;;;;;;;;5045355;28;20100;-71
2024/01/29 12:14:11;;;;;;;11.02;7.55;;;;;;;;;;5045409;28;20045;-70
2024/01/29 12:16:38;;;;;;;9.77;7.13;;;;;;;;;;5039121;28;20041;-69
2024/01/29 12:19:04;;;;;;;11.40;7.45;;;;;;;;;;5044028;28;20041;-69
2024/01/29 12:21:31;;;;;;;10.63;6.80;;;;;;;;;;5045297;28;20508;-69
2024/01/29 12:23:59;;;;;;;13.40;7.45;;;;;;;;;;5041087;28;20049;-71
2024/01/29 12:26:27;;;;;;;11.30;7.00;;;;;;;;;;5046018;28;20049;-70
2024/01/29 12:28:54;;;;;;;9.80;7.05;;;;;;;;;;5047782;28;20045;-69
2024/01/29 12:31:21;;;;;;;12.35;7.10;;;;;;;;;;5045433;28;20048;-69
2024/01/29 12:33:48;;;;;;;9.88;6.75;;;;;;;;;;5050059;28;20073;-69
2024/01/29 12:36:15;;;;;;;11.50;7.43;;;;;;;;;;5049938;28;20048;-68
2024/01/29 12:38:42;;;;;;;9.43;7.20;;;;;;;;;;5045726;28;20056;-68
2024/01/29 12:41:10;;;;;;;9.73;6.85;;;;;;;;;;5048721;28;20064;-69
2024/01/29 12:43:38;;;;;;;9.55;6.65;;;;;;;;;;5041619;28;20055;-69
2024/01/29 12:46:05;;;;;;;11.00;7.13;;;;;;;;;;5048785;28;20496;-68
2024/01/29 12:48:31;;;;;;;12.50;7.43;;;;;;;;;;5039314;28;20045;-68
2024/01/29 12:50:57;;;;;;;9.77;7.07;;;;;;;;;;5041003;28;20049;-69
2024/01/29 12:53:24;;;;;;;11.88;6.97;;;;;;;;;;5037741;28;20042;-69
2024/01/29 12:55:50;;;;;;;11.05;7.90;;;;;;;;;;5049020;28;20091;-69
2024/01/29 12:58:18;;;;;;;14.70;8.38;;;;;;;;;;5045441;28;20049;-70
2024/01/29 13:00:44;;;;;;;18.38;9.13;;;;;;;;;;5041704;28;20044;-70
2024/01/29 13:03:11;;;;;;;15.43;8.93;;;;;;;;;;5041496;28;20509;-69
2024/01/29 13:05:37;;;;;;;13.85;8.65;;;;;;;;;;5040460;28;20409;-69
2024/01/29 13:08:04;;;;;;;14.77;7.85;;;;;;;;;;5041157;28;20049;-69
2024/01/29 13:10:31;;;;;;;10.45;7.15;;;;;;;;;;5042309;28;20052;-71
2024/01/29 13:12:57;;;;;;;13.90;7.93;;;;;;;;;;5051248;28;20437;-68
2024/01/29 13:15:25;;;;;;;10.50;6.90;;;;;;;;;;5045069;28;20044;-68
2024/01/29 13:17:51;;;;;;;12.13;6.53;;;;;;;;;;5037046;28;20478;-72
2024/01/29 13:20:17;;;;;;;11.30;7.10;;;;;;;;;;5045957;28;20041;-69
2024/01/29 13:22:43;;;;;;;11.25;7.00;;;;;;;;;;5046213;28;20044;-68
2024/01/29 13:25:10;;;;;;;9.98;6.65;;;;;;;;;;5042360;28;20048;-72
2024/01/29 13:27:36;;;;;;;12.02;7.28;;;;;;;;;;5050350;28;20497;-69
2024/01/29 13:30:03;;;;;;;11.68;6.88;;;;;;;;;;5051303;28;20369;-69
2024/01/29 13:32:31;;;;;;;13.40;7.57;;;;;;;;;;5042137;28;20484;-69
2024/01/29 13:34:57;;;;;;;10.05;7.25;;;;;;;;;;5051336;28;20135;-68
2024/01/29 13:37:24;;;;;;;10.75;6.50;;;;;;;;;;5043649;28;20041;-70
2024/01/29 13:39:50;;;;;;;9.60;6.45;;;;;;;;;;5046074;28;20093;-69
2024/01/29 13:42:16;;;;;;;11.88;7.28;;;;;;;;;;5051170;28;20520;-69
2024/01/29 13:44:43;;;;;;;10.80;6.55;;;;;;;;;;5041181;28;20346;-69
2024/01/29 13:47:09;;;;;;;10.50;7.25;;;;;;;;;;5041675;28;20095;-69
2024/01/29 13:49:37;;;;;;;15.77;7.53;;;;;;;;;;5048671;28;20053;-70
2024/01/29 13:52:04;;;;;;;27.35;14.68;;;;;;;;;;5050567;28;20055;-70
2024/01/29 13:54:31;;;;;;;28.13;12.50;;;;;;;;;;5041815;28;20502;-69
2024/01/29 13:56:57;;;;;;;12.68;8.27;;;;;;;;;;5048105;28;20421;-72
2024/01/29 13:59:24;;;;;;;14.88;10.13;;;;;;;;;;5049674;28;20402;-71
2024/01/29 14:01:50;;;;;;;13.75;8.73;;;;;;;;;;5045942;28;20049;-69
2024/01/29 14:04:17;;;;;;;14.95;7.25;;;;;;;;;;5048768;28;20053;-68
2024/01/29 14:06:44;;;;;;;8.75;7.28;;;;;;;;;;5044115;28;20059;-69
2024/01/29 14:09:11;;;;;;;11.48;6.95;;;;;;;;;;5050943;28;20511;-68
2024/01/29 14:11:37;;;;;;;13.57;6.63;;;;;;;;;;5049910;28;20139;-68
2024/01/29 14:14:04;;;;;;;9.98;7.05;;;;;;;;;;5045922;28;20127;-69
2024/01/29 14:16:30;;;;;;;11.20;7.28;;;;;;;;;;5044323;28;20061;-69
2024/01/29 14:18:57;;;;;;;10.35;6.15;;;;;;;;;;5045290;28;20041;-69
2024/01/29 14:21:24;;;;;;;11.07;6.55;;;;;;;;;;5036320;28;20076;-69
2024/01/29 14:23:51;;;;;;;9.70;6.68;;;;;;;;;;5039871;28;20061;-69
2024/01/29 14:26:18;;;;;;;10.98;5.90;;;;;;;;;;5041887;28;20055;-71
2024/01/29 14:28:44;;;;;;;9.50;6.72;;;;;;;;;;5040399;28;20059;-69
2024/01/29 14:31:10;;;;;;;10.50;7.15;;;;;;;;;;5044097;28;20087;-68